sensor_id;sensor_type;location;lat;lon;timestamp;P1;durP1;ratioP1;P2;durP2;ratioP2
73140;SDS011;61339;50.558;4.696;2023-09-18T00:00:09;11.03;;;4.17;;
73140;SDS011;61339;50.558;4.696;2023-09-18T00:02:37;10.60;;;4.10;;
73140;SDS011;61339;50.558;4.696;2023-09-18T00:05:06;13.05;;;4.15;;
73140;SDS011;61339;50.558;4.696;2023-09-18T00:07:31;11.73;;;4.30;;
73140;SDS011;61339;50.558;4.696;2023-09-18T00:09:57;10.53;;;4.13;;
73140;SDS011;61339;50.558;4.696;2023-09-18T00:12:22;12.73;;;4.20;;
73140;SDS011;61339;50.558;4.696;2023-09-18T00:14:48;11.57;;;4.17;;
73140;SDS011;61339;50.558;4.696;2023-09-18T00:17:14;10.55;;;4.47;;
73140;SDS011;61339;50.558;4.696;2023-09-18T00:19:41;11.95;;;4.53;;
73140;SDS011;61339;50.558;4.696;2023-09-18T00:22:07;10.47;;;4.10;;
73140;SDS011;61339;50.558;4.696;2023-09-18T00:24:33;10.07;;;4.15;;
73140;SDS011;61339;50.558;4.696;2023-09-18T00:26:59;12.90;;;4.37;;
73140;SDS011;61339;50.558;4.696;2023-09-18T00:29:24;10.63;;;3.78;;
73140;SDS011;61339;50.558;4.696;2023-09-18T00:31:50;10.67;;;4.03;;
73140;SDS011;61339;50.558;4.696;2023-09-18T00:34:17;11.98;;;4.28;;
73140;SDS011;61339;50.558;4.696;2023-09-18T00:36:43;14.07;;;4.23;;
73140;SDS011;61339;50.558;4.696;2023-09-18T00:39:09;10.02;;;3.95;;
73140;SDS011;61339;50.558;4.696;2023-09-18T00:41:35;10.97;;;4.00;;
73140;SDS011;61339;50.558;4.696;2023-09-18T00:44:01;8.85;;;3.97;;
73140;SDS011;61339;50.558;4.696;2023-09-18T00:46:26;12.63;;;4.32;;
73140;SDS011;61339;50.558;4.696;2023-09-18T00:48:55;9.47;;;4.03;;
73140;SDS011;61339;50.558;4.696;2023-09-18T00:51:20;10.13;;;4.15;;
73140;SDS011;61339;50.558;4.696;2023-09-18T00:53:46;12.47;;;4.40;;
73140;SDS011;61339;50.558;4.696;2023-09-18T00:56:15;11.23;;;4.47;;
73140;SDS011;61339;50.558;4.696;2023-09-18T00:58:42;13.75;;;4.93;;
73140;SDS011;61339;50.558;4.696;2023-09-18T01:01:11;14.77;;;5.00;;
73140;SDS011;61339;50.558;4.696;2023-09-18T01:03:37;13.82;;;5.28;;
73140;SDS011;61339;50.558;4.696;2023-09-18T01:06:05;15.20;;;5.33;;
73140;SDS011;61339;50.558;4.696;2023-09-18T01:08:30;10.25;;;5.63;;
73140;SDS011;61339;50.558;4.696;2023-09-18T01:11:06;12.53;;;5.50;;
73140;SDS011;61339;50.558;4.696;2023-09-18T01:13:35;12.55;;;4.70;;
73140;SDS011;61339;50.558;4.696;2023-09-18T01:16:10;11.48;;;4.97;;
73140;SDS011;61339;50.558;4.696;2023-09-18T01:18:50;11.85;;;4.30;;
73140;SDS011;61339;50.558;4.696;2023-09-18T01:21:18;7.90;;;3.35;;
73140;SDS011;61339;50.558;4.696;2023-09-18T01:23:48;9.80;;;4.27;;
73140;SDS011;61339;50.558;4.696;2023-09-18T01:26:16;10.27;;;4.00;;
73140;SDS011;61339;50.558;4.696;2023-09-18T01:28:42;12.07;;;3.95;;
73140;SDS011;61339;50.558;4.696;2023-09-18T01:31:12;11.43;;;4.40;;
73140;SDS011;61339;50.558;4.696;2023-09-18T01:33:52;12.75;;;4.50;;
73140;SDS011;61339;50.558;4.696;2023-09-18T01:36:21;12.73;;;4.40;;
73140;SDS011;61339;50.558;4.696;2023-09-18T01:38:52;13.15;;;5.28;;
73140;SDS011;61339;50.558;4.696;2023-09-18T01:41:18;10.70;;;5.15;;
73140;SDS011;61339;50.558;4.696;2023-09-18T01:43:44;11.73;;;5.20;;
73140;SDS011;61339;50.558;4.696;2023-09-18T01:46:11;10.73;;;4.93;;
73140;SDS011;61339;50.558;4.696;2023-09-18T01:48:36;11.47;;;4.67;;
73140;SDS011;61339;50.558;4.696;2023-09-18T01:51:03;11.32;;;4.63;;
73140;SDS011;61339;50.558;4.696;2023-09-18T01:53:28;12.30;;;5.13;;
73140;SDS011;61339;50.558;4.696;2023-09-18T01:55:56;10.25;;;4.55;;
73140;SDS011;61339;50.558;4.696;2023-09-18T01:58:21;12.97;;;5.47;;
73140;SDS011;61339;50.558;4.696;2023-09-18T02:00:49;9.18;;;4.50;;
73140;SDS011;61339;50.558;4.696;2023-09-18T02:03:14;11.57;;;4.97;;
73140;SDS011;61339;50.558;4.696;2023-09-18T02:05:43;13.18;;;5.32;;
73140;SDS011;61339;50.558;4.696;2023-09-18T02:08:09;10.70;;;4.57;;
73140;SDS011;61339;50.558;4.696;2023-09-18T02:10:45;11.75;;;4.90;;
73140;SDS011;61339;50.558;4.696;2023-09-18T02:13:14;10.33;;;4.80;;
73140;SDS011;61339;50.558;4.696;2023-09-18T02:15:39;11.43;;;4.85;;
73140;SDS011;61339;50.558;4.696;2023-09-18T02:18:05;12.13;;;4.20;;
73140;SDS011;61339;50.558;4.696;2023-09-18T02:20:39;10.80;;;4.38;;
73140;SDS011;61339;50.558;4.696;2023-09-18T02:23:17;11.07;;;3.85;;
73140;SDS011;61339;50.558;4.696;2023-09-18T02:25:43;12.00;;;3.93;;
73140;SDS011;61339;50.558;4.696;2023-09-18T02:28:16;12.13;;;3.63;;
73140;SDS011;61339;50.558;4.696;2023-09-18T02:30:42;12.23;;;3.83;;
73140;SDS011;61339;50.558;4.696;2023-09-18T02:33:10;9.10;;;2.85;;
73140;SDS011;61339;50.558;4.696;2023-09-18T02:35:35;9.63;;;2.83;;
73140;SDS011;61339;50.558;4.696;2023-09-18T02:38:01;7.60;;;3.05;;
73140;SDS011;61339;50.558;4.696;2023-09-18T02:40:32;8.18;;;2.90;;
73140;SDS011;61339;50.558;4.696;2023-09-18T02:42:57;7.60;;;2.60;;
73140;SDS011;61339;50.558;4.696;2023-09-18T02:45:23;13.27;;;7.00;;
73140;SDS011;61339;50.558;4.696;2023-09-18T02:47:48;10.27;;;4.97;;
73140;SDS011;61339;50.558;4.696;2023-09-18T02:50:14;8.33;;;2.17;;
73140;SDS011;61339;50.558;4.696;2023-09-18T02:52:39;7.80;;;1.83;;
73140;SDS011;61339;50.558;4.696;2023-09-18T02:55:04;5.77;;;1.80;;
73140;SDS011;61339;50.558;4.696;2023-09-18T02:57:33;6.90;;;1.98;;
73140;SDS011;61339;50.558;4.696;2023-09-18T03:00:01;6.30;;;1.77;;
73140;SDS011;61339;50.558;4.696;2023-09-18T03:02:29;4.90;;;1.70;;
73140;SDS011;61339;50.558;4.696;2023-09-18T03:04:57;4.97;;;1.50;;
73140;SDS011;61339;50.558;4.696;2023-09-18T03:07:22;5.60;;;1.45;;
73140;SDS011;61339;50.558;4.696;2023-09-18T03:09:48;4.97;;;1.47;;
73140;SDS011;61339;50.558;4.696;2023-09-18T03:12:15;5.63;;;1.83;;
73140;SDS011;61339;50.558;4.696;2023-09-18T03:14:41;4.87;;;1.60;;
73140;SDS011;61339;50.558;4.696;2023-09-18T03:17:09;6.70;;;1.75;;
73140;SDS011;61339;50.558;4.696;2023-09-18T03:19:35;4.63;;;1.60;;
73140;SDS011;61339;50.558;4.696;2023-09-18T03:22:00;5.17;;;1.90;;
73140;SDS011;61339;50.558;4.696;2023-09-18T03:24:26;5.72;;;1.98;;
73140;SDS011;61339;50.558;4.696;2023-09-18T03:26:52;5.37;;;1.93;;
73140;SDS011;61339;50.558;4.696;2023-09-18T03:29:17;5.67;;;1.90;;
73140;SDS011;61339;50.558;4.696;2023-09-18T03:31:43;4.90;;;1.83;;
73140;SDS011;61339;50.558;4.696;2023-09-18T03:34:08;7.28;;;1.95;;
73140;SDS011;61339;50.558;4.696;2023-09-18T03:36:34;6.37;;;1.73;;
73140;SDS011;61339;50.558;4.696;2023-09-18T03:39:01;4.63;;;1.58;;
73140;SDS011;61339;50.558;4.696;2023-09-18T03:41:27;6.13;;;1.90;;
73140;SDS011;61339;50.558;4.696;2023-09-18T03:44:00;6.30;;;1.80;;
73140;SDS011;61339;50.558;4.696;2023-09-18T03:46:28;4.72;;;1.70;;
73140;SDS011;61339;50.558;4.696;2023-09-18T03:48:53;7.67;;;1.80;;
73140;SDS011;61339;50.558;4.696;2023-09-18T03:51:23;5.45;;;1.70;;
73140;SDS011;61339;50.558;4.696;2023-09-18T03:53:49;4.30;;;1.60;;
73140;SDS011;61339;50.558;4.696;2023-09-18T03:56:16;5.70;;;1.70;;
73140;SDS011;61339;50.558;4.696;2023-09-18T03:58:42;5.90;;;2.10;;
73140;SDS011;61339;50.558;4.696;2023-09-18T04:01:15;6.40;;;2.00;;
73140;SDS011;61339;50.558;4.696;2023-09-18T04:03:44;7.38;;;1.80;;
73140;SDS011;61339;50.558;4.696;2023-09-18T04:06:09;6.37;;;1.93;;
73140;SDS011;61339;50.558;4.696;2023-09-18T04:08:34;5.10;;;1.90;;
73140;SDS011;61339;50.558;4.696;2023-09-18T04:11:00;8.27;;;2.10;;
73140;SDS011;61339;50.558;4.696;2023-09-18T04:13:26;6.43;;;1.95;;
73140;SDS011;61339;50.558;4.696;2023-09-18T04:15:52;8.23;;;2.83;;
73140;SDS011;61339;50.558;4.696;2023-09-18T04:18:22;8.23;;;2.95;;
73140;SDS011;61339;50.558;4.696;2023-09-18T04:20:47;7.05;;;2.10;;
73140;SDS011;61339;50.558;4.696;2023-09-18T04:23:25;7.63;;;2.38;;
73140;SDS011;61339;50.558;4.696;2023-09-18T04:25:52;7.67;;;1.90;;
73140;SDS011;61339;50.558;4.696;2023-09-18T04:28:21;6.32;;;2.08;;
73140;SDS011;61339;50.558;4.696;2023-09-18T04:30:47;6.90;;;2.00;;
73140;SDS011;61339;50.558;4.696;2023-09-18T04:33:13;8.13;;;1.80;;
73140;SDS011;61339;50.558;4.696;2023-09-18T04:35:40;5.38;;;1.80;;
73140;SDS011;61339;50.558;4.696;2023-09-18T04:38:06;9.25;;;2.00;;
73140;SDS011;61339;50.558;4.696;2023-09-18T04:40:33;6.75;;;1.85;;
73140;SDS011;61339;50.558;4.696;2023-09-18T04:43:00;5.30;;;1.70;;
73140;SDS011;61339;50.558;4.696;2023-09-18T04:45:25;5.17;;;2.00;;
73140;SDS011;61339;50.558;4.696;2023-09-18T04:47:51;4.83;;;1.80;;
73140;SDS011;61339;50.558;4.696;2023-09-18T04:50:17;7.07;;;1.75;;
73140;SDS011;61339;50.558;4.696;2023-09-18T04:52:42;5.00;;;1.80;;
73140;SDS011;61339;50.558;4.696;2023-09-18T04:55:10;4.22;;;1.70;;
73140;SDS011;61339;50.558;4.696;2023-09-18T04:57:37;6.80;;;1.90;;
73140;SDS011;61339;50.558;4.696;2023-09-18T05:00:03;4.90;;;1.60;;
73140;SDS011;61339;50.558;4.696;2023-09-18T05:02:33;6.93;;;1.70;;
73140;SDS011;61339;50.558;4.696;2023-09-18T05:04:59;5.38;;;1.90;;
73140;SDS011;61339;50.558;4.696;2023-09-18T05:07:25;6.13;;;2.35;;
73140;SDS011;61339;50.558;4.696;2023-09-18T05:09:51;6.03;;;1.77;;
73140;SDS011;61339;50.558;4.696;2023-09-18T05:12:16;5.47;;;1.73;;
73140;SDS011;61339;50.558;4.696;2023-09-18T05:14:42;6.33;;;1.70;;
73140;SDS011;61339;50.558;4.696;2023-09-18T05:17:14;4.78;;;1.60;;
73140;SDS011;61339;50.558;4.696;2023-09-18T05:19:41;6.47;;;1.80;;
73140;SDS011;61339;50.558;4.696;2023-09-18T05:22:08;5.82;;;1.70;;
73140;SDS011;61339;50.558;4.696;2023-09-18T05:24:35;7.83;;;1.90;;
73140;SDS011;61339;50.558;4.696;2023-09-18T05:27:03;5.35;;;1.60;;
73140;SDS011;61339;50.558;4.696;2023-09-18T05:29:31;6.38;;;1.70;;
73140;SDS011;61339;50.558;4.696;2023-09-18T05:31:56;5.07;;;1.70;;
73140;SDS011;61339;50.558;4.696;2023-09-18T05:34:22;6.68;;;1.80;;
73140;SDS011;61339;50.558;4.696;2023-09-18T05:36:47;8.03;;;1.90;;
73140;SDS011;61339;50.558;4.696;2023-09-18T05:39:13;5.95;;;1.60;;
73140;SDS011;61339;50.558;4.696;2023-09-18T05:41:39;7.33;;;1.70;;
73140;SDS011;61339;50.558;4.696;2023-09-18T05:44:08;5.93;;;1.70;;
73140;SDS011;61339;50.558;4.696;2023-09-18T05:46:34;6.25;;;1.90;;
73140;SDS011;61339;50.558;4.696;2023-09-18T05:49:00;8.38;;;1.70;;
73140;SDS011;61339;50.558;4.696;2023-09-18T05:51:26;6.67;;;1.73;;
73140;SDS011;61339;50.558;4.696;2023-09-18T05:54:00;7.40;;;1.70;;
73140;SDS011;61339;50.558;4.696;2023-09-18T05:56:30;5.68;;;1.80;;
73140;SDS011;61339;50.558;4.696;2023-09-18T05:58:58;7.00;;;1.80;;
73140;SDS011;61339;50.558;4.696;2023-09-18T06:01:28;5.88;;;1.58;;
73140;SDS011;61339;50.558;4.696;2023-09-18T06:03:53;4.47;;;1.80;;
73140;SDS011;61339;50.558;4.696;2023-09-18T06:06:18;6.22;;;1.70;;
73140;SDS011;61339;50.558;4.696;2023-09-18T06:08:44;5.10;;;2.00;;
73140;SDS011;61339;50.558;4.696;2023-09-18T06:11:10;4.20;;;1.60;;
73140;SDS011;61339;50.558;4.696;2023-09-18T06:13:35;5.68;;;1.63;;
73140;SDS011;61339;50.558;4.696;2023-09-18T06:16:01;6.10;;;1.50;;
73140;SDS011;61339;50.558;4.696;2023-09-18T06:18:32;6.03;;;1.90;;
73140;SDS011;61339;50.558;4.696;2023-09-18T06:20:57;7.47;;;2.10;;
73140;SDS011;61339;50.558;4.696;2023-09-18T06:23:24;4.18;;;1.77;;
73140;SDS011;61339;50.558;4.696;2023-09-18T06:25:49;6.53;;;1.80;;
73140;SDS011;61339;50.558;4.696;2023-09-18T06:28:21;7.13;;;1.80;;
73140;SDS011;61339;50.558;4.696;2023-09-18T06:30:47;5.13;;;1.70;;
73140;SDS011;61339;50.558;4.696;2023-09-18T06:33:13;4.95;;;1.63;;
73140;SDS011;61339;50.558;4.696;2023-09-18T06:35:39;4.30;;;1.65;;
73140;SDS011;61339;50.558;4.696;2023-09-18T06:38:04;5.40;;;1.70;;
73140;SDS011;61339;50.558;4.696;2023-09-18T06:40:31;5.72;;;1.40;;
73140;SDS011;61339;50.558;4.696;2023-09-18T06:43:00;7.55;;;1.70;;
73140;SDS011;61339;50.558;4.696;2023-09-18T06:45:25;6.25;;;1.70;;
73140;SDS011;61339;50.558;4.696;2023-09-18T06:47:52;6.80;;;1.70;;
73140;SDS011;61339;50.558;4.696;2023-09-18T06:50:18;8.18;;;1.80;;
73140;SDS011;61339;50.558;4.696;2023-09-18T06:52:44;5.63;;;1.52;;
73140;SDS011;61339;50.558;4.696;2023-09-18T06:55:11;7.63;;;2.00;;
73140;SDS011;61339;50.558;4.696;2023-09-18T06:57:36;6.45;;;1.90;;
73140;SDS011;61339;50.558;4.696;2023-09-18T07:00:01;5.40;;;1.50;;
73140;SDS011;61339;50.558;4.696;2023-09-18T07:02:28;7.30;;;1.80;;
73140;SDS011;61339;50.558;4.696;2023-09-18T07:04:54;4.03;;;1.50;;
73140;SDS011;61339;50.558;4.696;2023-09-18T07:07:19;7.20;;;1.90;;
73140;SDS011;61339;50.558;4.696;2023-09-18T07:09:50;6.57;;;2.15;;
73140;SDS011;61339;50.558;4.696;2023-09-18T07:12:16;6.57;;;1.70;;
73140;SDS011;61339;50.558;4.696;2023-09-18T07:14:44;4.70;;;1.40;;
73140;SDS011;61339;50.558;4.696;2023-09-18T07:17:10;5.67;;;1.60;;
73140;SDS011;61339;50.558;4.696;2023-09-18T07:19:36;6.35;;;1.55;;
73140;SDS011;61339;50.558;4.696;2023-09-18T07:22:01;5.23;;;1.70;;
73140;SDS011;61339;50.558;4.696;2023-09-18T07:24:27;15.20;;;2.58;;
73140;SDS011;61339;50.558;4.696;2023-09-18T07:26:52;6.63;;;1.97;;
73140;SDS011;61339;50.558;4.696;2023-09-18T07:29:20;8.45;;;1.60;;
73140;SDS011;61339;50.558;4.696;2023-09-18T07:31:46;4.97;;;1.50;;
73140;SDS011;61339;50.558;4.696;2023-09-18T07:34:12;6.43;;;1.60;;
73140;SDS011;61339;50.558;4.696;2023-09-18T07:36:39;5.80;;;1.70;;
73140;SDS011;61339;50.558;4.696;2023-09-18T07:39:04;4.73;;;1.30;;
73140;SDS011;61339;50.558;4.696;2023-09-18T07:41:31;4.88;;;1.40;;
73140;SDS011;61339;50.558;4.696;2023-09-18T07:43:57;5.07;;;1.45;;
73140;SDS011;61339;50.558;4.696;2023-09-18T07:46:24;6.40;;;2.17;;
73140;SDS011;61339;50.558;4.696;2023-09-18T07:48:49;5.43;;;1.30;;
73140;SDS011;61339;50.558;4.696;2023-09-18T07:51:15;8.67;;;1.80;;
73140;SDS011;61339;50.558;4.696;2023-09-18T07:53:42;4.80;;;1.50;;
73140;SDS011;61339;50.558;4.696;2023-09-18T07:56:09;4.53;;;1.20;;
73140;SDS011;61339;50.558;4.696;2023-09-18T07:58:37;7.50;;;1.38;;
73140;SDS011;61339;50.558;4.696;2023-09-18T08:01:04;5.90;;;1.30;;
73140;SDS011;61339;50.558;4.696;2023-09-18T08:03:30;4.50;;;1.30;;
73140;SDS011;61339;50.558;4.696;2023-09-18T08:05:56;7.43;;;1.60;;
73140;SDS011;61339;50.558;4.696;2023-09-18T08:08:22;6.17;;;1.63;;
73140;SDS011;61339;50.558;4.696;2023-09-18T08:10:48;5.88;;;1.60;;
73140;SDS011;61339;50.558;4.696;2023-09-18T08:13:15;5.70;;;1.30;;
73140;SDS011;61339;50.558;4.696;2023-09-18T08:15:41;4.15;;;1.23;;
73140;SDS011;61339;50.558;4.696;2023-09-18T08:18:06;9.60;;;1.83;;
73140;SDS011;61339;50.558;4.696;2023-09-18T08:20:32;7.33;;;1.60;;
73140;SDS011;61339;50.558;4.696;2023-09-18T08:22:58;6.82;;;1.40;;
73140;SDS011;61339;50.558;4.696;2023-09-18T08:25:26;5.68;;;1.42;;
73140;SDS011;61339;50.558;4.696;2023-09-18T08:27:53;5.60;;;1.45;;
73140;SDS011;61339;50.558;4.696;2023-09-18T08:30:18;8.53;;;1.60;;
73140;SDS011;61339;50.558;4.696;2023-09-18T08:32:46;4.95;;;1.40;;
73140;SDS011;61339;50.558;4.696;2023-09-18T08:35:14;5.57;;;1.40;;
73140;SDS011;61339;50.558;4.696;2023-09-18T08:37:40;4.90;;;1.40;;
73140;SDS011;61339;50.558;4.696;2023-09-18T08:40:07;9.27;;;1.63;;
73140;SDS011;61339;50.558;4.696;2023-09-18T08:42:39;5.15;;;1.30;;
73140;SDS011;61339;50.558;4.696;2023-09-18T08:45:09;7.07;;;1.40;;
73140;SDS011;61339;50.558;4.696;2023-09-18T08:47:37;5.75;;;1.40;;
73140;SDS011;61339;50.558;4.696;2023-09-18T08:50:05;8.20;;;1.42;;
73140;SDS011;61339;50.558;4.696;2023-09-18T08:52:33;5.97;;;1.30;;
73140;SDS011;61339;50.558;4.696;2023-09-18T08:55:00;7.13;;;1.50;;
73140;SDS011;61339;50.558;4.696;2023-09-18T08:57:26;6.43;;;1.70;;
73140;SDS011;61339;50.558;4.696;2023-09-18T08:59:53;7.85;;;1.63;;
73140;SDS011;61339;50.558;4.696;2023-09-18T09:02:19;5.65;;;1.40;;
73140;SDS011;61339;50.558;4.696;2023-09-18T09:04:45;9.17;;;1.67;;
73140;SDS011;61339;50.558;4.696;2023-09-18T09:07:10;7.97;;;1.50;;
73140;SDS011;61339;50.558;4.696;2023-09-18T09:09:36;5.70;;;1.37;;
73140;SDS011;61339;50.558;4.696;2023-09-18T09:12:01;7.00;;;1.70;;
73140;SDS011;61339;50.558;4.696;2023-09-18T09:14:26;5.33;;;1.57;;
73140;SDS011;61339;50.558;4.696;2023-09-18T09:16:55;4.97;;;1.63;;
73140;SDS011;61339;50.558;4.696;2023-09-18T09:19:30;7.07;;;2.03;;
73140;SDS011;61339;50.558;4.696;2023-09-18T09:22:00;10.47;;;1.80;;
73140;SDS011;61339;50.558;4.696;2023-09-18T09:24:36;7.88;;;1.77;;
73140;SDS011;61339;50.558;4.696;2023-09-18T09:27:09;5.88;;;1.60;;
73140;SDS011;61339;50.558;4.696;2023-09-18T09:29:36;7.72;;;1.60;;
73140;SDS011;61339;50.558;4.696;2023-09-18T09:32:15;5.97;;;1.80;;
73140;SDS011;61339;50.558;4.696;2023-09-18T09:34:42;5.87;;;1.80;;
73140;SDS011;61339;50.558;4.696;2023-09-18T09:37:09;8.48;;;1.90;;
73140;SDS011;61339;50.558;4.696;2023-09-18T09:39:51;6.40;;;2.00;;
73140;SDS011;61339;50.558;4.696;2023-09-18T09:42:17;6.97;;;1.90;;
73140;SDS011;61339;50.558;4.696;2023-09-18T09:44:47;5.55;;;1.85;;
73140;SDS011;61339;50.558;4.696;2023-09-18T09:47:13;6.00;;;1.60;;
73140;SDS011;61339;50.558;4.696;2023-09-18T09:49:47;7.10;;;1.60;;
73140;SDS011;61339;50.558;4.696;2023-09-18T09:52:17;5.95;;;1.80;;
73140;SDS011;61339;50.558;4.696;2023-09-18T09:54:47;5.87;;;1.80;;
73140;SDS011;61339;50.558;4.696;2023-09-18T09:57:12;6.47;;;1.77;;
73140;SDS011;61339;50.558;4.696;2023-09-18T09:59:38;6.30;;;1.90;;
73140;SDS011;61339;50.558;4.696;2023-09-18T10:02:05;6.40;;;1.92;;
73140;SDS011;61339;50.558;4.696;2023-09-18T10:04:34;6.23;;;1.90;;
73140;SDS011;61339;50.558;4.696;2023-09-18T10:07:08;6.13;;;1.80;;
73140;SDS011;61339;50.558;4.696;2023-09-18T10:09:35;4.90;;;1.80;;
73140;SDS011;61339;50.558;4.696;2023-09-18T10:12:01;6.15;;;2.00;;
73140;SDS011;61339;50.558;4.696;2023-09-18T10:14:32;5.63;;;1.95;;
73140;SDS011;61339;50.558;4.696;2023-09-18T10:17:04;8.07;;;2.40;;
73140;SDS011;61339;50.558;4.696;2023-09-18T10:19:40;7.63;;;2.08;;
73140;SDS011;61339;50.558;4.696;2023-09-18T10:24:47;9.07;;;2.00;;
73140;SDS011;61339;50.558;4.696;2023-09-18T10:27:16;7.00;;;1.88;;
73140;SDS011;61339;50.558;4.696;2023-09-18T10:29:43;5.00;;;2.00;;
73140;SDS011;61339;50.558;4.696;2023-09-18T10:32:10;6.25;;;1.77;;
73140;SDS011;61339;50.558;4.696;2023-09-18T10:34:36;4.88;;;1.42;;
73140;SDS011;61339;50.558;4.696;2023-09-18T10:37:04;5.93;;;1.70;;
73140;SDS011;61339;50.558;4.696;2023-09-18T10:39:36;6.45;;;1.50;;
73140;SDS011;61339;50.558;4.696;2023-09-18T10:42:04;4.37;;;1.43;;
73140;SDS011;61339;50.558;4.696;2023-09-18T10:44:33;5.65;;;1.70;;
73140;SDS011;61339;50.558;4.696;2023-09-18T10:47:00;4.65;;;1.50;;
73140;SDS011;61339;50.558;4.696;2023-09-18T10:49:27;4.57;;;1.40;;
73140;SDS011;61339;50.558;4.696;2023-09-18T10:51:54;6.78;;;1.70;;
73140;SDS011;61339;50.558;4.696;2023-09-18T10:54:24;6.63;;;1.40;;
73140;SDS011;61339;50.558;4.696;2023-09-18T10:56:51;4.18;;;1.40;;
73140;SDS011;61339;50.558;4.696;2023-09-18T10:59:17;4.25;;;1.30;;
73140;SDS011;61339;50.558;4.696;2023-09-18T11:01:43;7.80;;;1.40;;
73140;SDS011;61339;50.558;4.696;2023-09-18T11:04:09;5.03;;;1.17;;
73140;SDS011;61339;50.558;4.696;2023-09-18T11:07:00;3.83;;;1.30;;
73140;SDS011;61339;50.558;4.696;2023-09-18T11:09:25;3.45;;;1.20;;
73140;SDS011;61339;50.558;4.696;2023-09-18T11:12:14;39.70;;;4.25;;
73140;SDS011;61339;50.558;4.696;2023-09-18T11:17:38;4.25;;;1.38;;
73140;SDS011;61339;50.558;4.696;2023-09-18T11:20:08;5.93;;;1.10;;
73140;SDS011;61339;50.558;4.696;2023-09-18T11:22:40;6.30;;;1.20;;
73140;SDS011;61339;50.558;4.696;2023-09-18T11:28:08;4.35;;;1.10;;
73140;SDS011;61339;50.558;4.696;2023-09-18T11:30:38;3.97;;;1.20;;
73140;SDS011;61339;50.558;4.696;2023-09-18T11:33:15;4.30;;;1.20;;
73140;SDS011;61339;50.558;4.696;2023-09-18T11:35:55;5.72;;;1.20;;
73140;SDS011;61339;50.558;4.696;2023-09-18T11:38:21;3.53;;;1.20;;
73140;SDS011;61339;50.558;4.696;2023-09-18T11:40:48;4.60;;;1.40;;
73140;SDS011;61339;50.558;4.696;2023-09-18T11:43:21;4.90;;;1.40;;
73140;SDS011;61339;50.558;4.696;2023-09-18T11:45:51;3.70;;;1.20;;
73140;SDS011;61339;50.558;4.696;2023-09-18T11:48:18;4.40;;;1.17;;
73140;SDS011;61339;50.558;4.696;2023-09-18T11:50:44;5.20;;;1.00;;
73140;SDS011;61339;50.558;4.696;2023-09-18T11:53:14;5.07;;;1.30;;
73140;SDS011;61339;50.558;4.696;2023-09-18T11:55:40;5.23;;;1.37;;
73140;SDS011;61339;50.558;4.696;2023-09-18T11:58:05;6.68;;;1.15;;
73140;SDS011;61339;50.558;4.696;2023-09-18T12:00:31;6.68;;;1.20;;
73140;SDS011;61339;50.558;4.696;2023-09-18T12:02:57;4.83;;;1.23;;
73140;SDS011;61339;50.558;4.696;2023-09-18T12:05:23;4.00;;;1.10;;
73140;SDS011;61339;50.558;4.696;2023-09-18T12:07:51;4.32;;;1.15;;
73140;SDS011;61339;50.558;4.696;2023-09-18T12:10:18;4.30;;;1.17;;
73140;SDS011;61339;50.558;4.696;2023-09-18T12:12:46;3.53;;;1.20;;
73140;SDS011;61339;50.558;4.696;2023-09-18T12:15:12;3.72;;;1.15;;
73140;SDS011;61339;50.558;4.696;2023-09-18T12:17:40;5.07;;;1.10;;
73140;SDS011;61339;50.558;4.696;2023-09-18T12:20:06;6.27;;;1.07;;
73140;SDS011;61339;50.558;4.696;2023-09-18T12:22:31;6.40;;;1.15;;
73140;SDS011;61339;50.558;4.696;2023-09-18T12:25:10;4.10;;;1.20;;
73140;SDS011;61339;50.558;4.696;2023-09-18T12:27:40;5.90;;;1.30;;
73140;SDS011;61339;50.558;4.696;2023-09-18T12:30:06;8.00;;;1.38;;
73140;SDS011;61339;50.558;4.696;2023-09-18T12:32:35;4.07;;;1.00;;
73140;SDS011;61339;50.558;4.696;2023-09-18T12:35:02;5.80;;;1.05;;
73140;SDS011;61339;50.558;4.696;2023-09-18T12:37:31;3.80;;;1.10;;
73140;SDS011;61339;50.558;4.696;2023-09-18T12:39:57;7.18;;;1.13;;
73140;SDS011;61339;50.558;4.696;2023-09-18T12:42:23;3.70;;;1.00;;
73140;SDS011;61339;50.558;4.696;2023-09-18T12:44:49;1.90;;;0.75;;
73140;SDS011;61339;50.558;4.696;2023-09-18T12:47:16;5.97;;;1.03;;
73140;SDS011;61339;50.558;4.696;2023-09-18T12:49:42;6.55;;;1.10;;
73140;SDS011;61339;50.558;4.696;2023-09-18T12:52:08;5.22;;;1.17;;
73140;SDS011;61339;50.558;4.696;2023-09-18T12:57:05;3.70;;;1.20;;
73140;SDS011;61339;50.558;4.696;2023-09-18T12:59:37;4.03;;;1.30;;
73140;SDS011;61339;50.558;4.696;2023-09-18T13:02:06;5.53;;;1.30;;
73140;SDS011;61339;50.558;4.696;2023-09-18T13:04:35;4.30;;;1.10;;
73140;SDS011;61339;50.558;4.696;2023-09-18T13:07:04;4.10;;;1.25;;
73140;SDS011;61339;50.558;4.696;2023-09-18T13:09:32;3.92;;;1.10;;
73140;SDS011;61339;50.558;4.696;2023-09-18T13:11:57;4.97;;;1.27;;
73140;SDS011;61339;50.558;4.696;2023-09-18T13:14:24;5.30;;;1.10;;
73140;SDS011;61339;50.558;4.696;2023-09-18T13:16:49;3.72;;;1.00;;
73140;SDS011;61339;50.558;4.696;2023-09-18T13:19:17;4.80;;;1.20;;
73140;SDS011;61339;50.558;4.696;2023-09-18T13:21:47;5.72;;;1.20;;
73140;SDS011;61339;50.558;4.696;2023-09-18T13:24:28;3.70;;;0.90;;
73140;SDS011;61339;50.558;4.696;2023-09-18T13:26:55;8.20;;;1.07;;
73140;SDS011;61339;50.558;4.696;2023-09-18T13:29:22;5.80;;;1.00;;
73140;SDS011;61339;50.558;4.696;2023-09-18T13:31:48;5.13;;;1.30;;
73140;SDS011;61339;50.558;4.696;2023-09-18T13:34:14;5.80;;;1.10;;
73140;SDS011;61339;50.558;4.696;2023-09-18T13:36:43;3.78;;;1.10;;
73140;SDS011;61339;50.558;4.696;2023-09-18T13:39:10;4.38;;;1.20;;
73140;SDS011;61339;50.558;4.696;2023-09-18T13:41:36;6.10;;;1.20;;
73140;SDS011;61339;50.558;4.696;2023-09-18T13:44:02;3.97;;;1.10;;
73140;SDS011;61339;50.558;4.696;2023-09-18T13:46:27;5.90;;;1.30;;
73140;SDS011;61339;50.558;4.696;2023-09-18T13:48:53;6.03;;;1.13;;
73140;SDS011;61339;50.558;4.696;2023-09-18T13:51:19;4.25;;;1.20;;
73140;SDS011;61339;50.558;4.696;2023-09-18T13:53:44;5.90;;;1.47;;
73140;SDS011;61339;50.558;4.696;2023-09-18T13:56:18;4.32;;;1.20;;
73140;SDS011;61339;50.558;4.696;2023-09-18T13:58:47;6.05;;;1.50;;
73140;SDS011;61339;50.558;4.696;2023-09-18T14:01:13;4.93;;;1.20;;
73140;SDS011;61339;50.558;4.696;2023-09-18T14:03:41;5.72;;;1.20;;
73140;SDS011;61339;50.558;4.696;2023-09-18T14:06:11;5.32;;;1.40;;
73140;SDS011;61339;50.558;4.696;2023-09-18T14:08:36;5.82;;;1.40;;
73140;SDS011;61339;50.558;4.696;2023-09-18T14:11:05;8.35;;;1.40;;
73140;SDS011;61339;50.558;4.696;2023-09-18T14:13:31;5.70;;;1.20;;
73140;SDS011;61339;50.558;4.696;2023-09-18T14:15:57;5.60;;;1.48;;
73140;SDS011;61339;50.558;4.696;2023-09-18T14:18:23;6.07;;;1.40;;
73140;SDS011;61339;50.558;4.696;2023-09-18T14:20:50;5.63;;;1.30;;
73140;SDS011;61339;50.558;4.696;2023-09-18T14:23:16;5.77;;;1.30;;
73140;SDS011;61339;50.558;4.696;2023-09-18T14:25:41;6.40;;;1.40;;
73140;SDS011;61339;50.558;4.696;2023-09-18T14:28:08;4.55;;;1.10;;
73140;SDS011;61339;50.558;4.696;2023-09-18T14:30:33;5.40;;;1.27;;
73140;SDS011;61339;50.558;4.696;2023-09-18T14:32:59;7.73;;;1.67;;
73140;SDS011;61339;50.558;4.696;2023-09-18T14:35:26;8.20;;;1.50;;
73140;SDS011;61339;50.558;4.696;2023-09-18T14:37:52;4.20;;;1.20;;
73140;SDS011;61339;50.558;4.696;2023-09-18T14:40:18;5.20;;;1.10;;
73140;SDS011;61339;50.558;4.696;2023-09-18T14:42:46;4.15;;;1.20;;
73140;SDS011;61339;50.558;4.696;2023-09-18T14:45:11;4.97;;;1.30;;
73140;SDS011;61339;50.558;4.696;2023-09-18T14:47:37;4.80;;;1.27;;
73140;SDS011;61339;50.558;4.696;2023-09-18T14:50:03;5.85;;;1.52;;
73140;SDS011;61339;50.558;4.696;2023-09-18T14:52:29;5.22;;;1.38;;
73140;SDS011;61339;50.558;4.696;2023-09-18T14:54:55;5.90;;;1.33;;
73140;SDS011;61339;50.558;4.696;2023-09-18T14:57:22;5.70;;;1.40;;